Time;durP1;ratioP1;P1;durP2;ratioP2;P2;SDS_P1;SDS_P2;PMS_P1;PMS_P2;Temp;Humidity;BMP_temperature;BMP_pressure;BME280_temperature;BME280_humidity;BME280_pressure;Samples;Min_cycle;Max_cycle;Signal;HPM_P1;HPM_P2
2023/06/03 00:00:04;;;;;;;7.25;5.28;;;;;;;20.61;43.55;93443.03;5026724;28;20045;-90
2023/06/03 00:02:29;;;;;;;7.65;5.50;;;;;;;20.61;43.63;93439.56;5032193;28;20040;-90
2023/06/03 00:04:54;;;;;;;7.72;4.45;;;;;;;20.63;43.81;93429.53;5029022;28;20610;-91
2023/06/03 00:07:20;;;;;;;6.20;4.88;;;;;;;20.62;43.33;93424.56;5044130;28;20645;-90
2023/06/03 00:09:45;;;;;;;8.25;4.85;;;;;;;20.61;43.50;93431.31;5029461;28;20037;-90
2023/06/03 00:12:11;;;;;;;5.88;4.40;;;;;;;20.59;43.42;93423.59;5006372;28;20045;-91
2023/06/03 00:14:36;;;;;;;10.32;4.93;;;;;;;20.60;43.34;93424.34;5031979;28;20090;-90
2023/06/03 00:17:01;;;;;;;6.38;4.20;;;;;;;20.58;43.56;93432.38;5029049;28;20255;-90
2023/06/03 00:19:27;;;;;;;8.25;5.13;;;;;;;20.57;43.54;93428.88;5028301;28;20103;-89
2023/06/03 00:21:54;;;;;;;8.50;4.97;;;;;;;20.58;43.50;93427.63;5040711;28;20061;-91
2023/06/03 00:24:25;;;;;;;5.18;4.18;;;;;;;20.59;43.41;93426.34;5009132;28;20056;-90
2023/06/03 00:26:51;;;;;;;6.80;4.85;;;;;;;20.58;43.58;93427.63;5009506;28;20046;-89
2023/06/03 00:29:18;;;;;;;6.60;4.47;;;;;;;20.58;43.55;93421.38;5011003;28;20096;-91
2023/06/03 00:31:43;;;;;;;6.10;4.93;;;;;;;20.56;43.56;93427.41;5004688;28;20037;-90
2023/06/03 00:34:09;;;;;;;6.13;4.22;;;;;;;20.56;43.61;93426.69;5001720;28;20050;-91
2023/06/03 00:36:35;;;;;;;5.57;4.15;;;;;;;20.58;43.63;93429.63;4987857;28;20396;-90
2023/06/03 00:39:01;;;;;;;7.43;5.30;;;;;;;20.56;43.61;93437.66;5034089;28;20048;-90
2023/06/03 00:41:29;;;;;;;6.25;4.57;;;;;;;20.56;43.48;93427.41;5006838;28;20535;-90
2023/06/03 00:43:55;;;;;;;7.78;5.60;;;;;;;20.55;43.59;93430.69;5040104;28;20045;-90
2023/06/03 00:46:20;;;;;;;7.10;5.28;;;;;;;20.56;43.82;93434.91;5007605;28;20451;-90
2023/06/03 00:48:46;;;;;;;8.13;5.20;;;;;;;20.57;43.44;93426.13;5029294;28;20045;-92
2023/06/03 00:51:11;;;;;;;6.88;5.43;;;;;;;20.55;43.59;93433.44;4987186;28;20662;-90
2023/06/03 00:53:37;;;;;;;7.07;5.07;;;;;;;20.55;43.54;93433.44;5018113;28;20046;-91
2023/06/03 00:56:02;;;;;;;7.78;4.68;;;;;;;20.55;43.58;93438.94;4987928;28;20076;-90
2023/06/03 00:58:27;;;;;;;6.90;5.60;;;;;;;20.52;43.64;93429.72;4995360;28;20052;-91
2023/06/03 01:00:53;;;;;;;8.57;5.03;;;;;;;20.53;43.67;93436.72;5019392;28;20069;-89
2023/06/03 01:03:19;;;;;;;8.02;4.88;;;;;;;20.51;43.71;93431.72;4989451;28;20045;-90
2023/06/03 01:05:45;;;;;;;6.43;4.93;;;;;;;20.54;43.53;93438.19;4992749;28;20037;-90
2023/06/03 01:08:33;;;;;;;8.55;6.00;;;;;;;20.53;43.46;93439.44;5022420;28;20054;-90
2023/06/03 01:11:05;;;;;;;6.22;5.00;;;;;;;20.52;43.47;93435.97;5009097;28;20057;-91
2023/06/03 01:13:39;;;;;;;7.63;4.88;;;;;;;20.51;43.60;93437.22;5025260;28;20041;-90
2023/06/03 01:16:05;;;;;;;5.55;4.63;;;;;;;20.51;43.28;93431.72;5008586;28;20124;-90
2023/06/03 01:18:31;;;;;;;5.75;4.90;;;;;;;20.52;43.66;93435.22;5018849;28;20037;-89
2023/06/03 01:20:59;;;;;;;5.53;4.65;;;;;;;20.53;43.64;93433.97;5040835;28;20055;-92
2023/06/03 01:23:28;;;;;;;8.85;5.07;;;;;;;20.51;43.54;93436.47;5027475;28;20496;-91
2023/06/03 01:25:56;;;;;;;5.60;5.00;;;;;;;20.49;43.63;93437.00;5001626;28;20045;-90
2023/06/03 01:28:23;;;;;;;6.63;4.90;;;;;;;20.50;43.42;93446.00;5027834;28;20037;-91
2023/06/03 01:30:49;;;;;;;6.60;5.03;;;;;;;20.49;43.60;93437.00;5012136;28;20034;-91
2023/06/03 01:33:15;;;;;;;8.20;5.38;;;;;;;20.49;43.44;93430.78;5034499;28;20037;-90
2023/06/03 01:35:41;;;;;;;5.72;5.22;;;;;;;20.49;43.74;93437.00;5032202;28;20091;-90
2023/06/03 01:38:06;;;;;;;7.75;4.82;;;;;;;20.49;43.36;93436.25;5034390;28;20051;-91
2023/06/03 01:40:32;;;;;;;7.18;5.25;;;;;;;20.47;43.43;93431.28;5040920;28;20635;-90
2023/06/03 01:42:57;;;;;;;8.48;5.13;;;;;;;20.47;43.41;93425.06;5015149;28;20562;-91
2023/06/03 01:45:22;;;;;;;6.70;5.68;;;;;;;20.48;43.25;93440.28;5015046;28;20262;-89
2023/06/03 01:47:48;;;;;;;6.47;5.32;;;;;;;20.46;43.41;93432.56;5059444;28;20037;-90
2023/06/03 01:50:16;;;;;;;7.20;4.70;;;;;;;20.46;43.54;93431.81;5014137;28;20054;-91
2023/06/03 01:52:43;;;;;;;9.38;5.05;;;;;;;20.45;43.59;93430.34;5054608;28;20497;-91
2023/06/03 01:55:08;;;;;;;6.85;5.30;;;;;;;20.45;43.50;93433.81;5014936;28;20381;-90
2023/06/03 01:57:35;;;;;;;7.50;4.90;;;;;;;20.45;43.52;93442.06;5030707;28;20040;-89
2023/06/03 02:00:01;;;;;;;9.80;5.28;;;;;;;20.44;43.62;93437.84;5028500;28;20046;-90
2023/06/03 02:02:26;;;;;;;5.65;4.95;;;;;;;20.45;43.65;93439.31;5026952;28;20033;-90
2023/06/03 02:04:56;;;;;;;6.93;5.22;;;;;;;20.44;43.52;93440.56;5011600;28;20057;-90
2023/06/03 02:07:21;;;;;;;7.97;5.18;;;;;;;20.45;43.31;93441.31;5026954;28;20037;-90
2023/06/03 02:09:46;;;;;;;8.35;5.65;;;;;;;20.43;43.68;93432.84;5011714;28;20045;-91
2023/06/03 02:12:12;;;;;;;7.03;4.97;;;;;;;20.44;43.62;93437.84;5025716;28;20037;-91
2023/06/03 02:14:38;;;;;;;7.72;5.20;;;;;;;20.44;43.51;93439.84;5019375;28;20049;-90
2023/06/03 02:17:04;;;;;;;8.45;5.45;;;;;;;20.44;43.45;93440.56;5061017;28;20408;-90
2023/06/03 02:19:30;;;;;;;8.40;5.40;;;;;;;20.43;43.59;93433.59;5064548;28;20127;-91
2023/06/03 02:21:57;;;;;;;5.85;5.25;;;;;;;20.43;43.57;93439.09;5031372;28;20045;-90
2023/06/03 02:24:23;;;;;;;6.43;4.95;;;;;;;20.41;43.51;93430.63;5030687;28;20121;-90
2023/06/03 02:26:52;;;;;;;8.20;5.90;;;;;;;20.41;43.40;93435.38;4993817;28;20500;-91
2023/06/03 02:29:20;;;;;;;7.43;5.32;;;;;;;20.40;43.59;93442.13;5033042;28;20037;-90
2023/06/03 02:31:46;;;;;;;8.05;6.13;;;;;;;20.41;43.52;93438.13;5031405;28;20124;-91
2023/06/03 02:34:11;;;;;;;6.82;5.75;;;;;;;20.42;43.52;93442.34;5061426;28;20037;-90
2023/06/03 02:36:38;;;;;;;8.20;5.78;;;;;;;20.39;43.47;93443.41;5019790;28;20364;-90
2023/06/03 02:39:04;;;;;;;6.03;5.10;;;;;;;20.41;43.63;93432.63;5037383;28;20068;-90
2023/06/03 02:41:30;;;;;;;8.15;5.22;;;;;;;20.39;43.43;93441.41;5031140;28;20045;-90
2023/06/03 02:43:55;;;;;;;6.05;5.43;;;;;;;20.38;43.38;93445.41;5042821;28;20052;-92
2023/06/03 02:46:21;;;;;;;7.65;5.18;;;;;;;20.38;43.29;93444.66;5007297;28;20069;-90
2023/06/03 02:48:46;;;;;;;6.95;5.25;;;;;;;20.39;43.40;93440.66;5040744;28;20122;-89
2023/06/03 02:51:11;;;;;;;6.70;5.30;;;;;;;20.37;43.36;93448.66;5077511;28;20048;-90
2023/06/03 02:53:37;;;;;;;7.07;5.22;;;;;;;20.37;43.66;93452.16;5010028;28;20046;-90
2023/06/03 02:56:02;;;;;;;7.57;5.45;;;;;;;20.37;43.63;93451.41;5020687;28;20041;-90
2023/06/03 02:58:28;;;;;;;6.43;5.20;;;;;;;20.37;43.46;93448.66;4994678;28;20418;-91
2023/06/03 03:00:53;;;;;;;8.15;5.35;;;;;;;20.37;43.60;93448.66;5038987;28;20065;-90
2023/06/03 03:03:19;;;;;;;8.20;5.10;;;;;;;20.37;43.54;93454.16;4989601;28;20037;-89
2023/06/03 03:05:44;;;;;;;6.78;5.00;;;;;;;20.35;43.41;93445.72;5032472;28;20052;-90
2023/06/03 03:08:10;;;;;;;8.30;5.70;;;;;;;20.35;43.06;93446.41;4992501;28;20092;-90
2023/06/03 03:10:35;;;;;;;7.88;5.40;;;;;;;20.35;43.50;93451.91;5036136;28;20041;-90
2023/06/03 03:13:01;;;;;;;6.80;5.00;;;;;;;20.34;43.87;93455.94;4993788;28;20412;-91
2023/06/03 03:15:26;;;;;;;6.03;5.07;;;;;;;20.36;43.36;93452.66;5025020;28;20408;-91
2023/06/03 03:17:52;;;;;;;6.13;4.80;;;;;;;20.35;43.38;93454.66;5010569;28;20091;-90
2023/06/03 03:20:17;;;;;;;9.13;6.07;;;;;;;20.35;43.61;93456.69;5026459;28;20435;-90
2023/06/03 03:22:44;;;;;;;7.40;5.05;;;;;;;20.35;43.37;93456.69;5020701;28;20493;-89
2023/06/03 03:25:10;;;;;;;6.75;4.88;;;;;;;20.32;43.49;93454.97;5006139;28;20488;-89
2023/06/03 03:27:35;;;;;;;7.32;5.25;;;;;;;20.33;43.39;93448.22;5010122;28;20124;-90
2023/06/03 03:30:01;;;;;;;7.45;5.53;;;;;;;20.34;43.45;93460.69;5026584;28;20507;-92
2023/06/03 03:32:26;;;;;;;5.88;5.38;;;;;;;20.31;43.75;93461.72;5025919;28;20041;-91
2023/06/03 03:35:14;;;;;;;6.22;5.45;;;;;;;20.32;43.56;93474.94;5026834;28;20427;-91
2023/06/03 03:37:40;;;;;;;6.93;4.53;;;;;;;20.32;43.40;93463.97;5026141;28;20040;-90
2023/06/03 03:40:22;;;;;;;7.60;5.35;;;;;;;20.31;43.52;93473.47;5038995;28;20041;-90
2023/06/03 03:42:53;;;;;;;6.47;4.90;;;;;;;20.32;43.45;93472.19;5014482;28;20033;-90
2023/06/03 03:45:20;;;;;;;5.68;4.80;;;;;;;20.32;43.39;93476.94;5012691;28;20396;-90
2023/06/03 03:47:49;;;;;;;6.03;5.25;;;;;;;20.31;43.47;93470.72;5056784;28;20094;-90
2023/06/03 03:50:44;;;;;;;8.23;5.20;;;;;;;20.31;43.50;93465.22;5000769;28;20042;-90
2023/06/03 03:53:17;;;;;;;6.18;5.47;;;;;;;20.31;43.40;93478.22;5029202;28;20041;-90
2023/06/03 03:55:45;;;;;;;7.43;4.85;;;;;;;20.31;43.36;93481.69;4994579;28;20113;-90
2023/06/03 03:58:42;;;;;;;5.63;5.03;;;;;;;20.31;43.36;93481.69;4993309;28;20037;-90
2023/06/03 04:01:23;;;;;;;6.13;5.20;;;;;;;20.31;43.43;93478.22;5036707;28;20468;-90
2023/06/03 04:03:51;;;;;;;6.57;4.28;;;;;;;20.32;43.06;93480.44;5001063;28;20045;-90
2023/06/03 04:06:22;;;;;;;6.53;4.70;;;;;;;20.32;43.34;93474.94;5043843;28;20032;-91
2023/06/03 04:08:48;;;;;;;7.32;5.18;;;;;;;20.34;43.36;93474.41;5045467;28;20049;-91
2023/06/03 04:11:30;;;;;;;7.57;4.82;;;;;;;20.33;43.30;93483.91;5043232;28;20048;-90
2023/06/03 04:13:57;;;;;;;6.13;4.38;;;;;;;20.32;43.38;93485.19;5009825;28;20626;-90
2023/06/03 04:16:37;;;;;;;5.35;4.63;;;;;;;20.35;43.29;93484.16;5006203;28;20499;-90
2023/06/03 04:19:03;;;;;;;6.88;4.60;;;;;;;20.34;43.15;93494.38;5043827;28;20072;-90
2023/06/03 04:21:30;;;;;;;4.68;4.25;;;;;;;20.33;43.33;93487.41;5018056;28;20052;-90
2023/06/03 04:23:55;;;;;;;6.80;5.18;;;;;;;20.34;43.07;93494.38;4997113;28;20337;-90
2023/06/03 04:26:20;;;;;;;5.32;4.13;;;;;;;20.36;42.93;93485.59;5004912;28;20568;-92
2023/06/03 04:28:46;;;;;;;7.13;4.63;;;;;;;20.38;42.98;93486.59;5025522;28;20041;-90
2023/06/03 04:31:11;;;;;;;9.38;4.85;;;;;;;20.37;43.21;93498.09;5023354;28;20487;-90
2023/06/03 04:33:37;;;;;;;6.97;4.20;;;;;;;20.37;43.05;93492.59;5009227;28;20034;-90
2023/06/03 04:36:02;;;;;;;5.38;4.22;;;;;;;20.37;42.79;93501.59;5022389;28;20048;-90
2023/06/03 04:38:28;;;;;;;4.72;4.28;;;;;;;20.39;42.83;93495.56;5008411;28;20033;-90
2023/06/03 04:40:54;;;;;;;5.60;3.60;;;;;;;20.36;42.80;93491.84;5057307;28;20045;-90
2023/06/03 04:43:19;;;;;;;4.65;3.88;;;;;;;20.35;42.92;93498.59;5011731;28;20041;-91
2023/06/03 04:45:45;;;;;;;4.53;3.92;;;;;;;20.36;42.63;93500.06;5039269;28;20063;-90
2023/06/03 04:48:12;;;;;;;6.80;4.25;;;;;;;20.36;42.89;93497.31;5011859;28;20040;-90
2023/06/03 04:50:37;;;;;;;6.50;4.03;;;;;;;20.39;42.72;93503.81;5021316;28;20049;-91
2023/06/03 04:53:03;;;;;;;5.40;4.43;;;;;;;20.41;42.47;93496.53;5038170;28;20403;-90
2023/06/03 04:55:28;;;;;;;4.97;3.90;;;;;;;20.42;42.82;93505.50;5044529;28;20495;-91
2023/06/03 04:57:54;;;;;;;5.75;3.63;;;;;;;20.43;42.44;93499.50;5029123;28;20044;-90
2023/06/03 05:00:19;;;;;;;5.63;4.10;;;;;;;20.44;42.42;93500.25;5063214;28;20033;-90
2023/06/03 05:02:54;;;;;;;5.05;3.80;;;;;;;20.45;42.34;93501.72;4996866;28;20123;-90
2023/06/03 05:05:22;;;;;;;4.88;3.70;;;;;;;20.48;42.04;93508.94;5041459;28;20071;-91
2023/06/03 05:07:47;;;;;;;5.57;3.40;;;;;;;20.48;42.39;93506.19;5016813;28;20036;-90
2023/06/03 05:10:13;;;;;;;4.22;3.50;;;;;;;20.50;42.28;93495.41;5046448;28;20045;-89
2023/06/03 05:12:38;;;;;;;5.15;3.25;;;;;;;20.49;42.16;93511.16;5004389;28;20100;-90
2023/06/03 05:15:04;;;;;;;3.90;3.50;;;;;;;20.51;42.18;93502.41;5048912;28;20423;-89
2023/06/03 05:17:29;;;;;;;6.22;4.03;;;;;;;20.50;42.19;93501.66;5012743;28;20034;-90
2023/06/03 05:19:55;;;;;;;3.90;3.50;;;;;;;20.52;42.27;93499.13;5012619;28;20053;-90
2023/06/03 05:22:20;;;;;;;5.18;3.85;;;;;;;20.53;42.21;93516.34;5025454;28;20038;-91
2023/06/03 05:24:45;;;;;;;4.03;3.63;;;;;;;20.55;42.21;93507.59;5023077;28;20035;-90
2023/06/03 05:27:11;;;;;;;5.50;3.38;;;;;;;20.55;42.13;93502.09;4991946;28;20064;-91
2023/06/03 05:29:36;;;;;;;4.53;3.65;;;;;;;20.57;42.07;93502.31;5022462;28;20500;-90
2023/06/03 05:32:02;;;;;;;4.03;3.13;;;;;;;20.57;42.05;93505.06;5012388;28;20038;-91
2023/06/03 05:34:27;;;;;;;5.20;3.22;;;;;;;20.58;41.96;93501.03;5045304;28;20042;-91
2023/06/03 05:36:53;;;;;;;5.50;3.42;;;;;;;20.61;41.90;93506.22;5028625;28;20052;-93
2023/06/03 05:39:18;;;;;;;5.13;3.33;;;;;;;20.59;42.10;93521.72;5026893;28;20072;-90
2023/06/03 05:41:44;;;;;;;4.35;3.58;;;;;;;20.61;42.04;93506.22;5009097;28;20088;-91
2023/06/03 05:44:09;;;;;;;4.20;3.10;;;;;;;20.63;42.04;93511.94;5043613;28;20480;-91
2023/06/03 05:46:35;;;;;;;3.67;3.00;;;;;;;20.63;42.21;93511.19;5011484;28;20044;-91
2023/06/03 05:49:00;;;;;;;3.20;2.85;;;;;;;20.64;42.00;93515.41;5024775;28;20060;-91
2023/06/03 05:51:26;;;;;;;5.25;3.63;;;;;;;20.67;41.82;93522.63;5021322;28;20534;-91
2023/06/03 05:53:51;;;;;;;7.28;3.65;;;;;;;20.66;41.94;93512.91;5024093;28;20037;-91
2023/06/03 05:56:17;;;;;;;3.78;3.30;;;;;;;20.70;41.79;93518.84;5011578;28;20059;-90
2023/06/03 05:58:43;;;;;;;4.55;3.22;;;;;;;20.69;41.84;93518.09;5022731;28;20041;-90
2023/06/03 06:01:09;;;;;;;5.22;3.55;;;;;;;20.68;41.87;93516.59;4994972;28;20049;-90
2023/06/03 06:03:34;;;;;;;4.72;3.20;;;;;;;20.70;42.15;93518.84;5037521;28;20400;-90
2023/06/03 06:06:00;;;;;;;4.18;2.95;;;;;;;20.70;41.72;93519.56;5028059;28;20053;-90
2023/06/03 06:08:26;;;;;;;3.35;3.03;;;;;;;20.72;41.78;93524.53;5027610;28;20502;-91
2023/06/03 06:10:52;;;;;;;4.40;3.50;;;;;;;20.72;42.17;93519.06;5010797;28;20128;-91
2023/06/03 06:13:17;;;;;;;6.70;3.20;;;;;;;20.73;41.82;93528.78;5042568;28;20425;-90
2023/06/03 06:16:02;;;;;;;4.97;2.97;;;;;;;20.75;42.03;93524.25;5011656;28;20518;-90
2023/06/03 06:18:29;;;;;;;3.03;2.60;;;;;;;20.77;41.52;93531.97;5027135;28;20038;-90
2023/06/03 06:20:55;;;;;;;3.38;3.03;;;;;;;20.79;41.70;93529.41;5024587;28;20370;-91
2023/06/03 06:23:20;;;;;;;5.82;3.22;;;;;;;20.79;41.87;93529.41;5040988;28;20284;-90
2023/06/03 06:25:50;;;;;;;3.75;3.10;;;;;;;20.77;41.73;93527.22;5044481;28;20793;-92
2023/06/03 06:28:19;;;;;;;3.33;3.03;;;;;;;20.83;41.85;93532.59;4994211;28;20038;-90
2023/06/03 06:30:45;;;;;;;4.00;3.22;;;;;;;20.83;41.68;93536.09;5023893;28;20124;-90
2023/06/03 06:33:13;;;;;;;3.30;2.50;;;;;;;20.84;41.86;93534.09;5028308;28;20099;-90
2023/06/03 06:35:38;;;;;;;4.75;3.38;;;;;;;20.83;41.70;93530.59;5040544;28;20527;-91
2023/06/03 06:38:04;;;;;;;3.65;3.22;;;;;;;20.85;41.78;93530.06;4991277;28;20310;-90
2023/06/03 06:40:36;;;;;;;7.60;3.45;;;;;;;20.84;41.66;93537.56;5017365;28;20046;-90
2023/06/03 06:43:02;;;;;;;4.82;2.97;;;;;;;20.87;41.64;93525.53;5007474;28;20038;-90
2023/06/03 06:45:31;;;;;;;4.25;3.00;;;;;;;20.88;41.43;93527.03;5050003;28;20095;-90
2023/06/03 06:48:08;;;;;;;4.85;3.20;;;;;;;20.87;41.60;93533.78;5030212;28;20431;-91
2023/06/03 06:50:49;;;;;;;3.50;2.92;;;;;;;20.90;41.67;93532.00;5045253;28;20037;-90
2023/06/03 06:53:15;;;;;;;3.83;3.03;;;;;;;20.88;41.65;93532.53;5067398;28;20377;-90
2023/06/03 06:55:50;;;;;;;11.95;3.45;;;;;;;20.88;41.45;93521.53;5030460;28;20123;-90
2023/06/03 06:58:16;;;;;;;3.22;2.88;;;;;;;20.89;41.43;93525.03;5078692;28;20077;-90
2023/06/03 07:00:41;;;;;;;5.43;2.83;;;;;;;20.86;41.66;93524.06;5062118;28;20183;-91
2023/06/03 07:03:14;;;;;;;5.47;3.05;;;;;;;20.88;41.26;93532.53;5057465;28;20412;-90
2023/06/03 07:05:40;;;;;;;3.00;2.63;;;;;;;20.89;41.51;93525.03;5045886;28;20043;-91
2023/06/03 07:08:05;;;;;;;6.43;2.65;;;;;;;20.88;41.51;93529.78;4990649;28;20033;-91
2023/06/03 07:10:31;;;;;;;3.67;2.67;;;;;;;20.88;41.24;93523.53;5056828;28;20128;-90
2023/06/03 07:12:56;;;;;;;4.22;2.55;;;;;;;20.89;41.25;93527.78;5015898;28;20594;-90
2023/06/03 07:15:22;;;;;;;3.80;3.25;;;;;;;20.91;41.27;93533.47;5059115;28;21088;-90
2023/06/03 07:17:51;;;;;;;3.40;2.72;;;;;;;20.88;41.62;93534.53;5010924;28;20029;-90
2023/06/03 07:20:19;;;;;;;4.88;3.17;;;;;;;20.87;41.26;93531.03;5013164;28;20033;-91
2023/06/03 07:22:44;;;;;;;3.45;2.55;;;;;;;20.91;41.42;93532.75;5010299;28;20064;-90
2023/06/03 07:25:16;;;;;;;3.47;2.40;;;;;;;20.91;41.43;93535.50;5045858;28;20045;-90
2023/06/03 07:27:43;;;;;;;4.28;3.00;;;;;;;20.92;41.12;93526.72;5004265;28;20043;-91
2023/06/03 07:30:14;;;;;;;3.63;2.55;;;;;;;20.92;41.11;93528.72;5014475;28;20549;-90
2023/06/03 07:32:39;;;;;;;;;;;;;;;20.94;41.36;93526.19;5039928;28;20060;-90
2023/06/03 07:35:05;;;;;;;6.18;2.88;;;;;;;20.94;41.24;93534.44;5079649;28;19951;-91
2023/06/03 07:37:31;;;;;;;5.40;2.78;;;;;;;20.89;41.15;93527.78;5022986;28;20387;-90
2023/06/03 07:39:56;;;;;;;3.58;2.60;;;;;;;20.90;41.14;93531.25;5011683;28;20038;-90
2023/06/03 07:42:25;;;;;;;3.20;2.75;;;;;;;20.88;40.99;93527.03;5028853;28;20157;-91
2023/06/03 07:44:50;;;;;;;4.18;3.08;;;;;;;20.90;40.87;93532.00;5013711;28;20076;-90
2023/06/03 07:47:16;;;;;;;4.30;2.50;;;;;;;20.91;40.95;93533.47;5028132;28;20503;-90
2023/06/03 07:49:47;;;;;;;3.40;2.58;;;;;;;20.91;40.95;93533.47;5013697;28;20041;-90
2023/06/03 07:52:15;;;;;;;4.82;2.78;;;;;;;20.90;41.13;93523.75;5013655;28;20057;-91
2023/06/03 07:54:41;;;;;;;3.33;2.45;;;;;;;20.91;41.33;93521.75;5039766;28;20030;-90
2023/06/03 07:57:06;;;;;;;5.65;2.67;;;;;;;20.93;40.93;93533.69;5057621;28;20061;-90
2023/06/03 07:59:32;;;;;;;4.45;2.83;;;;;;;20.93;40.93;93530.22;4993480;28;20044;-90
2023/06/03 08:01:58;;;;;;;5.07;2.65;;;;;;;20.94;40.83;93526.94;5013421;28;20037;-90
2023/06/03 08:04:30;;;;;;;3.50;2.30;;;;;;;20.94;41.04;93528.94;5015768;28;20034;-90
2023/06/03 08:06:56;;;;;;;4.25;2.50;;;;;;;20.93;40.94;93527.47;4989395;28;20123;-90
2023/06/03 08:09:27;;;;;;;2.97;2.17;;;;;;;20.92;40.74;93528.72;5021244;28;20655;-90
2023/06/03 08:11:56;;;;;;;3.00;2.58;;;;;;;20.93;40.87;93533.69;5020931;28;20049;-90
2023/06/03 08:14:23;;;;;;;6.53;2.85;;;;;;;20.95;40.97;93524.94;5023735;28;20068;-90
2023/06/03 08:16:49;;;;;;;6.05;2.90;;;;;;;20.94;40.97;93532.44;4989377;28;20103;-90
2023/06/03 08:19:14;;;;;;;2.90;2.15;;;;;;;20.95;41.05;93535.94;5003820;28;20038;-91
2023/06/03 08:21:39;;;;;;;4.85;2.53;;;;;;;20.94;40.97;93534.44;5053187;28;20041;-90
2023/06/03 08:24:05;;;;;;;3.70;3.03;;;;;;;20.93;40.96;93544.69;4992489;28;20046;-90
2023/06/03 08:26:30;;;;;;;4.00;2.80;;;;;;;20.95;41.05;93533.19;5009098;28;20056;-89
2023/06/03 08:28:56;;;;;;;4.15;2.75;;;;;;;20.94;41.03;93517.94;5054054;28;20104;-90
2023/06/03 08:31:21;;;;;;;3.38;2.50;;;;;;;20.92;41.16;93531.47;5002977;28;20052;-90
2023/06/03 08:33:47;;;;;;;2.78;2.28;;;;;;;20.94;41.23;93531.69;5039473;28;20037;-90
2023/06/03 08:36:12;;;;;;;3.78;2.50;;;;;;;20.94;41.42;93526.94;5020576;28;20037;-90
2023/06/03 08:38:40;;;;;;;7.22;2.80;;;;;;;20.93;41.34;93539.19;5025478;28;20030;-90
2023/06/03 08:41:06;;;;;;;3.08;2.35;;;;;;;20.95;41.13;93535.94;5021564;28;20082;-90
2023/06/03 08:43:47;;;;;;;3.83;2.45;;;;;;;20.91;41.01;93525.25;5017331;28;20061;-90
2023/06/03 08:46:22;;;;;;;6.30;2.92;;;;;;;20.92;41.06;93534.97;5002287;28;20041;-90
2023/06/03 08:49:00;;;;;;;2.90;2.40;;;;;;;20.94;41.08;93531.69;5011990;28;20048;-90
2023/06/03 08:51:26;;;;;;;5.03;2.65;;;;;;;20.93;40.84;93528.22;5042261;28;20051;-91
2023/06/03 08:53:52;;;;;;;3.65;2.63;;;;;;;20.92;40.79;93528.72;5039872;28;20037;-91
2023/06/03 08:56:20;;;;;;;4.32;2.25;;;;;;;20.91;40.62;93522.50;5011696;28;20033;-90
2023/06/03 08:58:48;;;;;;;3.55;2.47;;;;;;;20.92;40.80;93531.47;5028162;28;20515;-90
2023/06/03 09:01:15;;;;;;;3.33;2.70;;;;;;;20.92;41.08;93531.47;5035319;28;20432;-91
2023/06/03 09:03:41;;;;;;;3.55;2.95;;;;;;;20.91;40.79;93533.47;5005718;28;20157;-91
2023/06/03 09:06:06;;;;;;;3.35;2.55;;;;;;;20.91;40.96;93535.50;4986354;28;20509;-91
2023/06/03 09:08:32;;;;;;;2.78;1.95;;;;;;;20.92;41.18;93536.97;5019208;28;20046;-90
2023/06/03 09:10:57;;;;;;;3.92;2.10;;;;;;;20.89;41.21;93538.75;5038907;28;20040;-90
2023/06/03 09:13:22;;;;;;;4.10;2.72;;;;;;;20.90;41.25;93537.50;4994012;28;20046;-91
2023/06/03 09:15:49;;;;;;;3.15;2.45;;;;;;;20.90;41.45;93534.00;5036660;28;20037;-90
2023/06/03 09:18:15;;;;;;;4.50;2.25;;;;;;;20.90;41.24;93536.75;5055344;28;20047;-90
2023/06/03 09:20:41;;;;;;;2.75;2.55;;;;;;;20.91;41.05;93530.00;5055018;28;20049;-90
2023/06/03 09:23:06;;;;;;;4.80;2.30;;;;;;;20.92;40.80;93528.72;5012319;28;20031;-91
2023/06/03 09:25:32;;;;;;;4.05;2.70;;;;;;;20.93;40.94;93541.22;5039288;28;20041;-91
2023/06/03 09:27:57;;;;;;;3.80;2.45;;;;;;;20.94;41.16;93537.19;5007914;28;20049;-90
2023/06/03 09:30:22;;;;;;;3.83;2.53;;;;;;;20.92;40.95;93525.97;4991572;28;20037;-90
2023/06/03 09:32:48;;;;;;;4.57;2.70;;;;;;;20.90;40.86;93542.25;5019814;28;20439;-90
2023/06/03 09:35:13;;;;;;;3.78;2.65;;;;;;;20.91;40.74;93530.00;5024698;28;20045;-90
2023/06/03 09:37:39;;;;;;;5.30;2.72;;;;;;;20.90;40.82;93545.75;5026666;28;20045;-90
2023/06/03 09:40:05;;;;;;;4.05;2.67;;;;;;;20.92;40.46;93534.97;5006272;28;20046;-91
2023/06/03 09:42:44;;;;;;;3.85;2.72;;;;;;;20.93;41.10;93538.47;5032935;28;20132;-90
2023/06/03 09:45:23;;;;;;;4.75;2.70;;;;;;;20.89;40.95;93533.25;5027832;28;20041;-91
2023/06/03 09:47:49;;;;;;;3.10;2.45;;;;;;;20.88;41.08;93532.53;5015527;28;20522;-90
2023/06/03 09:50:15;;;;;;;7.32;2.88;;;;;;;20.91;41.11;93541.72;5014778;28;20041;-90
2023/06/03 09:52:40;;;;;;;3.90;2.42;;;;;;;20.88;41.13;93524.28;5048915;28;20053;-91
2023/06/03 09:55:07;;;;;;;3.58;2.30;;;;;;;20.89;41.04;93527.78;5030761;28;20040;-90
2023/06/03 09:57:33;;;;;;;3.78;2.45;;;;;;;20.91;41.08;93530.00;5040128;28;20104;-90
2023/06/03 10:00:11;;;;;;;3.55;2.20;;;;;;;20.88;41.15;93532.53;5001216;28;20041;-90
2023/06/03 10:02:45;;;;;;;3.58;2.60;;;;;;;20.90;41.01;93534.00;5043832;28;20041;-91
2023/06/03 10:05:26;;;;;;;4.88;2.63;;;;;;;20.91;41.20;93535.50;5032203;28;20403;-92
2023/06/03 10:07:51;;;;;;;4.32;2.40;;;;;;;20.91;41.16;93535.50;5011808;28;20447;-90
2023/06/03 10:10:17;;;;;;;2.97;2.30;;;;;;;20.90;41.30;93534.00;5042788;28;20492;-90
2023/06/03 10:12:44;;;;;;;4.95;3.00;;;;;;;20.90;41.10;93528.50;5009192;28;20041;-90
2023/06/03 10:15:10;;;;;;;4.25;2.83;;;;;;;20.88;41.18;93527.03;5044863;28;20436;-91
2023/06/03 10:17:35;;;;;;;6.50;3.35;;;;;;;20.90;40.87;93536.75;5020998;28;20095;-91
2023/06/03 10:20:01;;;;;;;33.60;4.55;;;;;;;20.87;41.22;93520.03;5044027;28;20037;-90
2023/06/03 10:22:26;;;;;;;5.20;2.28;;;;;;;20.91;41.32;93519.75;5063870;28;20037;-91
2023/06/03 10:24:53;;;;;;;3.38;2.45;;;;;;;20.89;41.15;93514.03;5059584;28;20026;-92
2023/06/03 10:27:19;;;;;;;3.70;2.53;;;;;;;20.87;41.21;93525.53;5013877;28;20042;-90
2023/06/03 10:29:44;;;;;;;7.20;2.80;;;;;;;20.85;41.04;93508.09;5041484;28;20403;-91
2023/06/03 10:32:12;;;;;;;3.83;2.90;;;;;;;20.84;40.82;93525.84;5027153;28;20045;-91
2023/06/03 10:34:42;;;;;;;5.35;2.97;;;;;;;20.81;40.75;93522.13;5021237;28;20038;-89
2023/06/03 10:37:08;;;;;;;4.57;3.33;;;;;;;20.80;40.71;93523.41;5003904;28;20072;-90
2023/06/03 10:39:34;;;;;;;8.18;3.83;;;;;;;20.80;40.79;93517.91;5014857;28;20629;-90
2023/06/03 10:42:01;;;;;;;4.82;3.55;;;;;;;20.80;40.73;93519.91;5005791;28;20056;-91
2023/06/03 10:44:27;;;;;;;7.57;4.57;;;;;;;20.81;40.34;93513.16;5047456;28;20058;-90
2023/06/03 10:46:59;;;;;;;9.57;4.60;;;;;;;20.76;40.41;93516.75;5013970;28;20045;-90
2023/06/03 10:49:27;;;;;;;15.18;3.97;;;;;;;20.77;40.33;93507.97;5047750;28;20052;-90
2023/06/03 10:52:04;;;;;;;6.57;4.15;;;;;;;20.81;40.49;93521.38;5055078;28;20590;-89
2023/06/03 10:54:48;;;;;;;21.73;5.13;;;;;;;20.76;40.20;93514.00;5026360;28;20503;-89
2023/06/03 10:57:14;;;;;;;11.43;4.53;;;;;;;20.75;40.45;93518.00;5026012;28;20045;-91
2023/06/03 10:59:44;;;;;;;6.13;4.38;;;;;;;20.75;40.21;93507.03;5037525;28;20133;-89
2023/06/03 11:02:09;;;;;;;11.38;4.43;;;;;;;20.75;40.50;93515.25;5035083;28;20132;-89
2023/06/03 11:04:36;;;;;;;34.38;6.03;;;;;;;20.75;39.98;93510.50;5035231;28;20045;-89
2023/06/03 11:07:02;;;;;;;15.85;4.32;;;;;;;20.74;40.43;93511.03;5034608;28;20539;-89
2023/06/03 11:09:38;;;;;;;8.88;3.85;;;;;;;20.73;40.46;93507.53;5029717;28;20617;-89
2023/06/03 11:12:10;;;;;;;14.55;4.70;;;;;;;20.76;40.52;93514.00;5038701;28;20037;-89
2023/06/03 11:14:40;;;;;;;20.80;4.68;;;;;;;20.75;40.02;93518.75;5010958;28;20041;-89
2023/06/03 11:17:05;;;;;;;;;;;;;;;20.76;39.89;93506.50;5020097;28;20042;-90
2023/06/03 11:19:37;;;;;;;12.47;4.30;;;;;;;20.76;39.99;93516.75;5026890;28;19932;-90
2023/06/03 11:22:07;;;;;;;18.80;4.95;;;;;;;20.76;40.12;93516.75;5038904;28;20283;-89
2023/06/03 11:24:39;;;;;;;28.30;5.63;;;;;;;20.78;40.01;93525.22;5028030;28;20502;-89
2023/06/03 11:27:12;;;;;;;16.42;6.40;;;;;;;20.78;39.85;93522.47;5046293;28;20044;-90
2023/06/03 11:29:48;;;;;;;20.00;5.43;;;;;;;20.79;40.09;93519.16;5033644;28;20420;-89
2023/06/03 11:32:21;;;;;;;18.23;5.28;;;;;;;20.80;39.86;93512.41;5025842;28;20041;-90
2023/06/03 11:34:48;;;;;;;26.15;5.80;;;;;;;20.82;39.72;93509.88;5020783;28;20124;-90